Time;durP1;ratioP1;P1;durP2;ratioP2;P2;SDS_P1;SDS_P2;PMS_P1;PMS_P2;Temp;Humidity;BMP_temperature;BMP_pressure;BME280_temperature;BME280_humidity;BME280_pressure;Samples;Min_cycle;Max_cycle;Signal;HPM_P1;HPM_P2
2023/03/19 00:01:26;;;;;;;1.67;0.90;;;;;;;25.07;47.83;99192.22;7390777;19;20109;-81
2023/03/19 00:03:53;;;;;;;1.80;0.85;;;;;;;25.17;47.21;99199.47;7389834;19;20026;-81
2023/03/19 00:06:19;;;;;;;1.75;0.95;;;;;;;23.25;48.49;99201.94;7389284;19;20014;-81
2023/03/19 00:08:45;;;;;;;5.38;1.52;;;;;;;24.21;47.45;99197.31;7387871;19;20018;-81
2023/03/19 00:11:12;;;;;;;0.80;0.80;;;;;;;23.72;48.10;99203.84;7388235;19;20006;-81
2023/03/19 00:13:39;;;;;;;6.00;1.33;;;;;;;24.40;46.83;99203.16;7389237;19;20010;-81
2023/03/19 00:16:06;;;;;;;2.92;0.65;;;;;;;24.13;47.23;99230.78;7391171;19;20015;-81
2023/03/19 00:18:32;;;;;;;0.93;0.93;;;;;;;23.85;47.38;99218.50;7392750;19;20015;-81
2023/03/19 00:20:58;;;;;;;0.55;0.55;;;;;;;22.79;48.70;99223.41;7391418;19;20026;-81
2023/03/19 00:23:24;;;;;;;1.95;1.10;;;;;;;20.94;51.94;99235.28;7389238;19;20022;-80
2023/03/19 00:25:53;;;;;;;2.10;0.90;;;;;;;19.28;53.57;99240.63;7391991;19;20025;-81
2023/03/19 00:28:19;;;;;;;0.30;0.30;;;;;;;21.98;52.09;99243.72;7393606;19;20031;-81
2023/03/19 00:30:45;;;;;;;0.30;0.30;;;;;;;23.13;48.56;99240.66;7394775;19;20022;-81
2023/03/19 00:33:11;;;;;;;0.68;0.45;;;;;;;23.60;47.66;99234.84;7390669;19;20092;-81
2023/03/19 00:35:39;;;;;;;0.85;0.35;;;;;;;23.87;46.20;99234.97;7390064;19;20018;-81
2023/03/19 00:38:05;;;;;;;0.47;0.45;;;;;;;24.27;45.27;99241.25;7390403;19;20045;-81
2023/03/19 00:40:32;;;;;;;0.40;0.40;;;;;;;24.40;45.04;99237.31;7390147;19;20389;-82
2023/03/19 00:42:58;;;;;;;0.55;0.55;;;;;;;23.85;44.89;99241.25;7389032;19;20489;-80
2023/03/19 00:45:24;;;;;;;1.95;1.55;;;;;;;23.70;45.25;99235.69;7391035;19;20010;-80
2023/03/19 00:47:50;;;;;;;0.93;0.43;;;;;;;23.56;44.79;99240.19;7390811;19;20018;-81
2023/03/19 00:50:16;;;;;;;0.40;0.40;;;;;;;23.34;44.99;99243.97;7388657;19;20010;-81
2023/03/19 00:52:43;;;;;;;1.60;0.82;;;;;;;21.72;46.17;99267.53;7390015;19;20029;-82
2023/03/19 00:55:09;;;;;;;0.30;0.30;;;;;;;15.72;57.10;99266.09;7392864;19;20018;-82
2023/03/19 00:57:35;;;;;;;0.50;0.50;;;;;;;12.81;92.40;99270.94;7390686;19;20421;-80
2023/03/19 01:00:02;;;;;;;0.40;0.40;;;;;;;13.54;85.75;99272.53;7391000;19;20316;-80
2023/03/19 01:02:30;;;;;;;0.20;0.20;;;;;;;19.45;68.45;99257.19;7388467;19;20015;-80
2023/03/19 01:04:57;;;;;;;0.22;0.22;;;;;;;20.00;61.12;99264.22;7392043;19;20018;-85
2023/03/19 01:07:23;;;;;;;1.23;0.50;;;;;;;21.21;56.25;99258.41;7394222;19;20381;-86
2023/03/19 01:09:49;;;;;;;1.55;0.47;;;;;;;19.90;59.70;99259.63;7392763;19;20010;-85
2023/03/19 01:12:16;;;;;;;2.75;0.57;;;;;;;22.51;52.67;99259.28;7391899;19;20082;-84
2023/03/19 01:14:42;;;;;;;0.28;0.28;;;;;;;22.84;50.89;99248.00;7391428;19;20018;-85
2023/03/19 01:17:08;;;;;;;0.35;0.28;;;;;;;23.07;49.45;99251.47;7392797;19;20027;-84
2023/03/19 01:19:34;;;;;;;2.00;0.98;;;;;;;23.25;48.15;99258.75;7394234;19;20031;-86
2023/03/19 01:22:01;;;;;;;0.40;0.40;;;;;;;23.48;47.00;99265.06;7399974;19;20019;-85
2023/03/19 01:24:30;;;;;;;0.45;0.45;;;;;;;23.24;46.72;99269.38;7399105;19;20491;-84
2023/03/19 01:26:57;;;;;;;0.30;0.30;;;;;;;23.70;45.48;99275.50;7400614;19;20478;-84
2023/03/19 01:29:41;;;;;;;0.35;0.35;;;;;;;23.47;45.48;99274.94;7402340;19;20018;-86
2023/03/19 01:32:12;;;;;;;10.95;0.85;;;;;;;23.09;45.94;99275.13;7396825;19;20035;-85
2023/03/19 01:34:38;;;;;;;0.20;0.20;;;;;;;23.08;46.04;99278.56;7401315;19;20077;-86
2023/03/19 01:37:08;;;;;;;0.20;0.20;;;;;;;23.14;46.06;99279.09;7401091;19;20018;-86
2023/03/19 01:39:34;;;;;;;1.40;1.30;;;;;;;23.20;45.71;99283.22;7398943;19;20551;-86
2023/03/19 01:42:05;;;;;;;0.50;0.50;;;;;;;23.58;45.42;99280.16;7398873;19;20504;-85
2023/03/19 01:44:50;;;;;;;0.50;0.50;;;;;;;23.80;44.87;99273.53;7403396;19;20018;-86
2023/03/19 01:47:27;;;;;;;0.90;0.57;;;;;;;23.74;44.99;99277.94;7400077;19;20492;-86
2023/03/19 01:50:38;;;;;;;0.20;0.20;;;;;;;23.78;45.16;99276.19;7398695;19;20038;-85
2023/03/19 01:53:30;;;;;;;0.60;0.60;;;;;;;23.67;44.99;99276.66;7398638;19;20104;-86
2023/03/19 01:56:32;;;;;;;0.40;0.40;;;;;;;23.81;44.25;99274.28;7398128;19;20014;-86
2023/03/19 01:59:15;;;;;;;0.38;0.25;;;;;;;23.68;44.56;99271.75;7393656;19;20044;-62
2023/03/19 02:02:08;;;;;;;0.77;0.68;;;;;;;23.69;44.76;99274.00;7395158;19;20040;-62
2023/03/19 02:04:37;;;;;;;0.30;0.30;;;;;;;23.75;44.78;99285.91;7396038;19;20031;-62
2023/03/19 02:07:05;;;;;;;0.32;0.32;;;;;;;24.29;43.96;99271.97;7396659;19;20007;-62
2023/03/19 02:09:31;;;;;;;0.20;0.20;;;;;;;24.02;44.62;99272.56;7394691;19;20022;-62
2023/03/19 02:12:00;;;;;;;1.40;0.50;;;;;;;24.67;43.48;99275.13;7394844;19;20082;-62
2023/03/19 02:14:27;;;;;;;0.20;0.20;;;;;;;24.72;43.06;99277.75;7395503;19;20014;-62
2023/03/19 02:16:54;;;;;;;0.30;0.30;;;;;;;24.71;43.04;99281.19;7395813;19;20012;-62
2023/03/19 02:20:01;;;;;;;7.68;0.40;;;;;;;24.92;42.71;99277.91;7395832;19;20366;-62
2023/03/19 02:22:30;;;;;;;0.20;0.20;;;;;;;24.36;43.38;99276.84;7392946;19;20174;-63
2023/03/19 02:24:56;;;;;;;0.13;0.13;;;;;;;24.52;43.17;99278.91;7394679;19;20028;-63
2023/03/19 02:27:23;;;;;;;6.85;1.08;;;;;;;24.84;42.64;99275.13;7396253;19;20011;-63
2023/03/19 02:29:50;;;;;;;1.75;0.40;;;;;;;25.10;42.05;99285.09;7398598;19;20369;-63
2023/03/19 02:32:16;;;;;;;4.68;0.95;;;;;;;24.77;42.38;99293.09;7397015;19;20078;-62
2023/03/19 02:34:43;;;;;;;5.50;1.08;;;;;;;25.15;42.01;99289.75;7400382;19;20017;-62
2023/03/19 02:37:21;;;;;;;0.28;0.28;;;;;;;23.83;43.17;99283.75;7399794;19;20017;-62
2023/03/19 02:40:23;;;;;;;2.05;0.65;;;;;;;25.09;42.34;99298.56;7399681;19;20018;-62
2023/03/19 02:42:49;;;;;;;1.63;0.68;;;;;;;20.79;48.93;99295.41;7397297;19;20031;-62
2023/03/19 02:45:15;;;;;;;0.20;0.20;;;;;;;24.44;43.60;99286.03;7398377;19;20367;-63
2023/03/19 02:47:42;;;;;;;1.27;0.70;;;;;;;25.04;42.35;99288.19;7397101;19;20034;-63
2023/03/19 02:50:09;;;;;;;16.83;2.25;;;;;;;24.27;42.51;99291.72;7396496;19;20006;-63
2023/03/19 02:52:35;;;;;;;10.43;0.43;;;;;;;25.45;41.52;99297.91;7398484;19;20014;-62
2023/03/19 02:55:02;;;;;;;0.13;0.13;;;;;;;25.55;40.99;99299.44;7399084;19;20347;-62
2023/03/19 02:57:28;;;;;;;0.30;0.30;;;;;;;25.69;40.98;99296.19;7398370;19;20014;-63
2023/03/19 02:59:54;;;;;;;0.15;0.15;;;;;;;25.97;40.37;99302.00;7397782;19;20015;-63
2023/03/19 03:02:21;;;;;;;4.95;0.75;;;;;;;25.59;40.22;99313.28;7396377;19;20014;-63
2023/03/19 03:04:47;;;;;;;0.20;0.20;;;;;;;24.72;41.15;99314.00;7396080;19;20015;-63
2023/03/19 03:07:13;;;;;;;9.13;1.48;;;;;;;24.59;41.54;99308.66;7395129;19;20029;-63
2023/03/19 03:09:40;;;;;;;1.35;0.63;;;;;;;24.45;41.85;99313.19;7396001;19;20025;-63
2023/03/19 03:12:07;;;;;;;0.70;0.35;;;;;;;24.64;41.84;99316.97;7391247;19;20018;-62
2023/03/19 03:14:34;;;;;;;11.18;1.23;;;;;;;24.74;41.23;99323.50;7394656;19;20022;-62
2023/03/19 03:17:00;;;;;;;0.43;0.25;;;;;;;24.66;41.29;99322.06;7394919;19;20007;-62
2023/03/19 03:19:27;;;;;;;1.38;0.25;;;;;;;24.55;41.21;99329.00;7393920;19;20010;-63
2023/03/19 03:21:53;;;;;;;0.40;0.40;;;;;;;24.67;41.44;99317.84;7393396;19;20010;-62
2023/03/19 03:24:19;;;;;;;0.20;0.20;;;;;;;24.63;41.42;99335.38;7394910;19;20367;-62
2023/03/19 03:26:45;;;;;;;0.20;0.20;;;;;;;24.61;41.40;99337.28;7395002;19;20478;-63
2023/03/19 03:29:12;;;;;;;15.10;1.58;;;;;;;24.56;41.35;99341.88;7394259;19;20030;-62
2023/03/19 03:31:38;;;;;;;0.52;0.38;;;;;;;24.53;41.47;99340.22;7393182;19;20074;-63
2023/03/19 03:34:04;;;;;;;0.10;0.10;;;;;;;24.47;41.34;99341.81;7393775;19;20015;-63
2023/03/19 03:36:31;;;;;;;6.25;0.52;;;;;;;24.56;41.46;99346.84;7393292;19;20349;-62
2023/03/19 03:38:57;;;;;;;0.43;0.43;;;;;;;24.24;41.75;99346.94;7393305;19;20014;-62
2023/03/19 03:41:24;;;;;;;0.28;0.28;;;;;;;23.93;41.49;99335.81;7392436;19;20017;-62
2023/03/19 03:43:51;;;;;;;1.85;1.27;;;;;;;23.31;42.87;99344.53;7392016;19;20033;-62
2023/03/19 03:46:18;;;;;;;0.52;0.52;;;;;;;24.15;41.27;99339.09;7396642;19;20020;-62
2023/03/19 03:48:48;;;;;;;0.30;0.30;;;;;;;24.04;41.51;99348.78;7397285;19;20014;-62
2023/03/19 03:51:14;;;;;;;0.20;0.20;;;;;;;21.90;44.16;99351.47;7391439;19;20015;-62
2023/03/19 03:53:40;;;;;;;6.75;0.65;;;;;;;22.19;44.04;99361.31;7391734;19;20069;-62
2023/03/19 03:56:07;;;;;;;0.40;0.40;;;;;;;21.05;45.45;99363.13;7392183;19;20332;-62
2023/03/19 03:58:33;;;;;;;0.73;0.65;;;;;;;21.23;46.05;99357.72;7397399;19;20062;-62
2023/03/19 04:01:00;;;;;;;0.30;0.30;;;;;;;22.28;44.37;99363.56;7393473;19;20038;-62
2023/03/19 04:03:26;;;;;;;2.08;0.82;;;;;;;22.47;44.10;99369.59;7392119;19;20014;-62
2023/03/19 04:05:53;;;;;;;0.40;0.28;;;;;;;22.46;43.79;99368.06;7394251;19;20013;-62
2023/03/19 04:08:21;;;;;;;1.45;0.85;;;;;;;22.19;44.09;99366.97;7395395;19;20011;-62
2023/03/19 04:10:48;;;;;;;0.20;0.20;;;;;;;22.13;44.26;99368.50;7391681;19;20011;-62
2023/03/19 04:13:14;;;;;;;5.57;0.80;;;;;;;21.91;44.75;99367.16;7395961;19;20021;-62
2023/03/19 04:15:42;;;;;;;0.30;0.30;;;;;;;21.68;44.94;99364.25;7391278;19;20639;-62
2023/03/19 04:18:09;;;;;;;0.43;0.43;;;;;;;21.76;44.88;99364.28;7394816;19;20068;-62
2023/03/19 04:20:36;;;;;;;3.13;1.60;;;;;;;21.60;45.15;99365.56;7391878;19;20689;-62
2023/03/19 04:23:02;;;;;;;0.10;0.10;;;;;;;22.67;44.04;99364.28;7390473;19;20023;-62
2023/03/19 04:25:30;;;;;;;1.85;0.68;;;;;;;23.43;42.97;99365.53;7390198;19;20655;-62
2023/03/19 04:27:57;;;;;;;0.50;0.50;;;;;;;23.56;43.00;99364.53;7388478;19;20010;-62
2023/03/19 04:30:24;;;;;;;7.38;0.82;;;;;;;23.97;42.50;99373.13;7390895;19;20010;-62
2023/03/19 04:32:51;;;;;;;1.20;0.90;;;;;;;24.27;42.07;99372.16;7391517;19;20015;-62
2023/03/19 04:35:17;;;;;;;0.17;0.15;;;;;;;24.92;41.29;99366.97;7390987;19;20018;-62
2023/03/19 04:37:47;;;;;;;0.28;0.28;;;;;;;24.56;41.22;99376.06;7391876;19;20112;-62
2023/03/19 04:40:15;;;;;;;0.35;0.35;;;;;;;24.26;41.85;99384.13;7391051;19;20039;-62
2023/03/19 04:42:43;;;;;;;0.68;0.68;;;;;;;24.08;42.08;99386.91;7392179;19;20010;-62
2023/03/19 04:45:25;;;;;;;13.55;0.85;;;;;;;24.39;41.60;99395.19;7391781;19;20010;-62
2023/03/19 04:47:51;;;;;;;0.20;0.20;;;;;;;24.55;41.59;99393.75;7393584;19;20035;-63
2023/03/19 04:50:18;;;;;;;0.40;0.40;;;;;;;24.55;41.34;99396.59;7389520;19;20024;-62
2023/03/19 04:52:45;;;;;;;3.03;0.77;;;;;;;24.35;41.63;99398.47;7389512;19;20014;-63
2023/03/19 04:55:12;;;;;;;1.75;0.90;;;;;;;24.07;42.01;99405.34;7389234;19;20401;-62
2023/03/19 04:58:04;;;;;;;0.77;0.45;;;;;;;24.36;41.69;99407.78;7393736;19;20006;-62
2023/03/19 05:00:33;;;;;;;8.48;0.90;;;;;;;24.82;41.13;99395.38;7394176;19;20011;-62
2023/03/19 05:03:00;;;;;;;1.20;1.20;;;;;;;24.66;41.28;99396.09;7390775;19;20051;-62
2023/03/19 05:05:29;;;;;;;15.98;1.45;;;;;;;24.00;42.28;99406.13;7390714;19;20070;-63
2023/03/19 05:07:57;;;;;;;15.25;0.77;;;;;;;24.70;41.36;99407.81;7393959;19;20015;-62
2023/03/19 05:10:23;;;;;;;0.70;0.70;;;;;;;24.75;41.71;99406.88;7393627;19;20010;-62
2023/03/19 05:12:50;;;;;;;0.98;0.73;;;;;;;24.91;41.21;99410.28;7394107;19;20414;-62
2023/03/19 05:15:16;;;;;;;4.80;1.52;;;;;;;25.00;40.91;99413.22;7390485;19;20034;-62
2023/03/19 05:17:52;;;;;;;5.47;0.95;;;;;;;24.94;41.25;99407.03;7393135;19;20010;-62
2023/03/19 05:20:24;;;;;;;4.50;1.15;;;;;;;25.30;41.13;99407.19;7390010;19;20025;-62
2023/03/19 05:22:56;;;;;;;1.42;0.55;;;;;;;25.33;40.79;99408.84;7389656;19;20029;-63
2023/03/19 05:25:34;;;;;;;0.60;0.60;;;;;;;24.91;41.52;99415.97;7389077;19;20021;-62
2023/03/19 05:28:02;;;;;;;0.30;0.30;;;;;;;24.71;41.60;99421.47;7393676;19;20076;-62
2023/03/19 05:30:29;;;;;;;0.90;0.60;;;;;;;24.74;41.36;99416.72;7394196;19;20062;-62
2023/03/19 05:33:09;;;;;;;0.20;0.20;;;;;;;24.43;42.03;99421.94;7389683;19;20459;-62
2023/03/19 05:35:39;;;;;;;6.68;0.82;;;;;;;24.80;41.68;99420.09;7389279;19;20388;-62
2023/03/19 05:38:14;;;;;;;0.75;0.75;;;;;;;24.74;41.30;99428.09;7392812;19;20010;-62
2023/03/19 05:40:43;;;;;;;0.32;0.28;;;;;;;25.35;41.28;99423.28;7389691;19;20384;-62
2023/03/19 05:43:22;;;;;;;0.80;0.30;;;;;;;25.19;41.25;99426.88;7389871;19;20082;-62
2023/03/19 05:45:51;;;;;;;0.95;0.85;;;;;;;25.31;40.99;99422.94;7392530;19;20373;-62
2023/03/19 05:48:22;;;;;;;2.13;0.65;;;;;;;25.22;41.00;99429.31;7393453;19;20086;-62
2023/03/19 05:50:48;;;;;;;3.80;1.45;;;;;;;25.17;41.01;99438.88;7388737;19;20024;-63
2023/03/19 05:53:21;;;;;;;5.35;1.23;;;;;;;24.93;41.36;99436.84;7389907;19;20474;-62
2023/03/19 05:56:23;;;;;;;4.78;1.90;;;;;;;25.19;41.06;99441.13;7387328;19;20522;-62
2023/03/19 05:58:59;;;;;;;2.85;0.90;;;;;;;25.25;41.45;99448.09;7389884;19;20107;-63
2023/03/19 06:01:32;;;;;;;2.10;1.33;;;;;;;25.55;41.01;99438.47;7388963;19;20034;-62
2023/03/19 06:04:00;;;;;;;1.85;0.52;;;;;;;25.52;40.82;99440.38;7388746;19;20023;-63
2023/03/19 06:06:26;;;;;;;18.52;1.30;;;;;;;25.35;40.77;99448.94;7391501;19;20007;-63
2023/03/19 06:08:53;;;;;;;0.52;0.52;;;;;;;25.50;40.82;99454.47;7400639;19;20078;-63
2023/03/19 06:11:33;;;;;;;0.65;0.63;;;;;;;25.55;40.52;99462.00;7393770;19;20019;-62
2023/03/19 06:14:22;;;;;;;3.40;1.38;;;;;;;25.41;40.75;99463.69;7398625;19;20336;-62
2023/03/19 06:17:05;;;;;;;3.42;0.52;;;;;;;25.37;40.99;99462.59;7396647;19;20031;-62
2023/03/19 06:19:32;;;;;;;1.13;0.50;;;;;;;25.30;41.26;99471.97;7398749;19;20474;-62
2023/03/19 06:21:58;;;;;;;3.40;1.15;;;;;;;25.33;41.26;99477.28;7395952;19;20025;-62
2023/03/19 06:24:25;;;;;;;3.05;1.55;;;;;;;25.46;41.38;99476.97;7396315;19;20014;-63
2023/03/19 06:26:51;;;;;;;11.57;2.10;;;;;;;25.54;40.81;99483.31;7396173;19;20015;-62
2023/03/19 06:29:18;;;;;;;8.93;1.42;;;;;;;25.40;41.13;99479.25;7395886;19;20042;-62
2023/03/19 06:31:48;;;;;;;2.25;0.77;;;;;;;25.38;41.23;99484.81;7392356;19;20010;-62
2023/03/19 06:34:21;;;;;;;2.47;1.20;;;;;;;25.18;41.20;99488.09;7394963;19;20021;-62
2023/03/19 06:36:48;;;;;;;1.20;1.13;;;;;;;25.27;41.07;99488.19;7397125;19;20014;-62
2023/03/19 06:39:15;;;;;;;11.35;1.58;;;;;;;25.44;41.27;99487.44;7399322;19;20027;-62
2023/03/19 06:41:42;;;;;;;1.77;1.67;;;;;;;25.55;41.42;99484.81;7397164;19;20459;-62
2023/03/19 06:44:13;;;;;;;;;;;;;;;25.72;41.25;99491.84;7396232;19;20070;-62
2023/03/19 06:46:39;;;;;;;0.98;0.98;;;;;;;25.58;41.15;99494.31;7397181;19;19918;-62
2023/03/19 06:49:05;;;;;;;2.70;1.92;;;;;;;26.08;40.79;99489.06;7400300;19;20462;-62
2023/03/19 06:51:31;;;;;;;0.38;0.38;;;;;;;25.93;40.96;99500.69;7395010;19;20348;-62
2023/03/19 06:53:58;;;;;;;0.57;0.57;;;;;;;25.47;41.59;99506.97;7394682;19;20425;-62
2023/03/19 06:56:24;;;;;;;1.50;1.38;;;;;;;25.67;41.33;99512.81;7396692;19;20010;-62
2023/03/19 06:58:51;;;;;;;7.40;0.73;;;;;;;25.92;40.82;99517.09;7397867;19;20474;-62
2023/03/19 07:01:17;;;;;;;8.35;0.90;;;;;;;26.28;40.49;99524.97;7397745;19;20018;-62
2023/03/19 07:03:44;;;;;;;3.08;1.15;;;;;;;25.96;40.84;99525.97;7396546;19;20070;-62
2023/03/19 07:06:10;;;;;;;1.20;1.15;;;;;;;26.14;40.39;99532.44;7395372;19;20010;-62
2023/03/19 07:08:36;;;;;;;0.60;0.60;;;;;;;26.17;41.03;99525.50;7396747;19;20070;-62
2023/03/19 07:11:04;;;;;;;11.52;0.88;;;;;;;26.10;40.79;99529.22;7391807;19;20010;-62
2023/03/19 07:13:31;;;;;;;0.45;0.28;;;;;;;26.11;40.77;99522.94;7392274;19;20018;-62
2023/03/19 07:15:58;;;;;;;12.52;1.15;;;;;;;26.01;41.02;99529.91;7391018;19;20003;-62
2023/03/19 07:18:25;;;;;;;1.05;1.05;;;;;;;25.85;41.11;99534.28;7395167;19;20021;-62
2023/03/19 07:20:54;;;;;;;1.02;0.73;;;;;;;25.86;41.10;99536.53;7392489;19;20492;-62
2023/03/19 07:23:20;;;;;;;0.73;0.73;;;;;;;25.84;40.93;99527.06;7395697;19;20010;-62
2023/03/19 07:25:47;;;;;;;4.50;0.80;;;;;;;25.75;41.53;99542.03;7394763;19;20027;-62
2023/03/19 07:28:14;;;;;;;1.17;0.85;;;;;;;25.81;41.31;99528.25;7398708;19;20010;-62
2023/03/19 07:30:40;;;;;;;0.57;0.57;;;;;;;25.85;41.47;99534.28;7397624;19;20025;-62
2023/03/19 07:33:06;;;;;;;0.82;0.60;;;;;;;25.75;41.37;99548.47;7395669;19;20051;-62
2023/03/19 07:35:34;;;;;;;4.85;0.73;;;;;;;25.90;41.16;99547.56;7395834;19;20034;-62
2023/03/19 07:38:01;;;;;;;0.30;0.10;;;;;;;25.97;41.04;99555.25;7399203;19;20391;-62
2023/03/19 07:40:27;;;;;;;1.42;1.08;;;;;;;25.98;41.60;99560.38;7395177;19;20015;-63
2023/03/19 07:42:53;;;;;;;1.73;0.63;;;;;;;26.15;41.61;99556.75;7393321;19;20021;-63
2023/03/19 07:45:20;;;;;;;2.10;1.08;;;;;;;26.19;41.78;99562.78;7397700;19;20031;-62
2023/03/19 07:47:48;;;;;;;2.20;1.50;;;;;;;26.15;41.31;99573.88;7397794;19;20538;-63
2023/03/19 07:50:15;;;;;;;8.50;0.60;;;;;;;26.17;41.44;99579.75;7395462;19;20017;-63
2023/03/19 07:52:41;;;;;;;0.55;0.55;;;;;;;26.14;41.43;99581.69;7392965;19;20493;-62
2023/03/19 07:55:07;;;;;;;6.50;1.13;;;;;;;26.08;41.11;99574.69;7394924;19;20010;-62
2023/03/19 07:57:34;;;;;;;1.05;0.95;;;;;;;20.39;47.94;99588.47;7397299;19;20011;-62
2023/03/19 08:00:00;;;;;;;5.55;0.98;;;;;;;24.26;46.01;99574.81;7397968;19;20014;-63
2023/03/19 08:02:26;;;;;;;0.47;0.47;;;;;;;25.44;44.36;99576.59;7393496;19;20014;-63
2023/03/19 08:04:53;;;;;;;0.93;0.57;;;;;;;24.87;45.29;99583.75;7393866;19;20032;-62
2023/03/19 08:07:20;;;;;;;0.57;0.40;;;;;;;26.18;43.36;99584.13;7397026;19;20018;-62
2023/03/19 08:09:46;;;;;;;9.20;0.90;;;;;;;26.47;42.94;99581.44;7394786;19;20033;-62
2023/03/19 08:12:13;;;;;;;0.20;0.20;;;;;;;26.58;42.18;99580.88;7391845;19;20127;-63
2023/03/19 08:14:39;;;;;;;2.90;1.13;;;;;;;26.67;42.44;99595.22;7395036;19;20015;-62
2023/03/19 08:17:05;;;;;;;0.95;0.77;;;;;;;26.98;41.59;99593.41;7395857;19;20022;-62
2023/03/19 08:19:32;;;;;;;7.15;0.57;;;;;;;27.05;41.85;99600.34;7395283;19;20018;-62
2023/03/19 08:21:58;;;;;;;1.10;0.65;;;;;;;26.76;41.81;99591.69;7395011;19;20017;-62
2023/03/19 08:24:24;;;;;;;1.95;0.95;;;;;;;26.71;41.60;99598.41;7392557;19;20007;-62
2023/03/19 08:26:51;;;;;;;1.80;1.45;;;;;;;26.75;41.97;99604.47;7394584;19;20388;-62
2023/03/19 08:29:17;;;;;;;0.20;0.20;;;;;;;26.56;41.62;99607.19;7393756;19;20018;-62
2023/03/19 08:31:43;;;;;;;0.30;0.30;;;;;;;26.42;41.45;99603.22;7392411;19;20052;-62
2023/03/19 08:34:09;;;;;;;0.50;0.50;;;;;;;26.68;41.43;99619.59;7392055;19;20459;-62
2023/03/19 08:36:35;;;;;;;0.63;0.57;;;;;;;26.97;41.02;99622.59;7392284;19;20343;-62
2023/03/19 08:39:03;;;;;;;0.57;0.30;;;;;;;26.92;41.44;99635.81;7392862;19;20015;-63
2023/03/19 08:41:29;;;;;;;2.45;0.25;;;;;;;27.10;41.07;99630.03;7394533;19;20349;-63
2023/03/19 08:43:55;;;;;;;4.75;0.63;;;;;;;26.99;41.00;99626.38;7392841;19;20440;-62
2023/03/19 08:46:22;;;;;;;8.25;1.77;;;;;;;26.93;41.37;99631.63;7396042;19;20014;-63
2023/03/19 08:48:48;;;;;;;1.23;1.13;;;;;;;26.94;40.97;99644.56;7393023;19;20014;-62
2023/03/19 08:51:14;;;;;;;0.75;0.57;;;;;;;27.33;40.61;99644.72;7392783;19;20062;-62
2023/03/19 08:53:40;;;;;;;2.83;0.80;;;;;;;27.43;40.61;99652.00;7393393;19;20020;-62
2023/03/19 08:56:07;;;;;;;0.25;0.25;;;;;;;27.31;40.08;99650.28;7393294;19;20014;-62
2023/03/19 08:58:34;;;;;;;1.27;0.50;;;;;;;27.27;40.22;99638.50;7398235;19;20019;-63
2023/03/19 09:01:07;;;;;;;5.68;0.30;;;;;;;27.09;39.79;99640.72;7392889;19;20017;-62
2023/03/19 09:03:34;;;;;;;2.08;1.13;;;;;;;27.28;39.88;99637.16;7393548;19;20011;-62
2023/03/19 09:06:02;;;;;;;0.22;0.10;;;;;;;27.58;39.99;99648.09;7393145;19;20014;-62
2023/03/19 09:08:29;;;;;;;0.73;0.43;;;;;;;27.23;40.34;99653.25;7396668;19;20015;-62
2023/03/19 09:10:56;;;;;;;0.30;0.30;;;;;;;25.32;42.95;99672.47;7394143;19;20007;-63
2023/03/19 09:13:23;;;;;;;0.20;0.20;;;;;;;26.78;40.71;99665.38;7395800;19;20353;-62
2023/03/19 09:15:50;;;;;;;2.20;1.00;;;;;;;27.41;40.45;99666.13;7395891;19;20076;-63
2023/03/19 09:18:19;;;;;;;0.55;0.52;;;;;;;27.66;39.82;99666.63;7394639;19;20036;-62
2023/03/19 09:20:46;;;;;;;0.30;0.28;;;;;;;27.66;40.18;99674.47;7396248;19;20018;-63
2023/03/19 09:23:12;;;;;;;2.20;0.93;;;;;;;27.91;39.82;99665.63;7397372;19;20010;-63
2023/03/19 09:25:38;;;;;;;4.68;1.15;;;;;;;28.01;39.40;99663.53;7390493;19;20014;-63
2023/03/19 09:28:04;;;;;;;3.80;0.60;;;;;;;27.89;38.72;99671.97;7393636;19;20338;-63
2023/03/19 09:30:30;;;;;;;1.38;0.47;;;;;;;27.75;39.23;99685.19;7392483;19;20021;-63
2023/03/19 09:32:57;;;;;;;0.63;0.63;;;;;;;27.31;39.82;99681.75;7390754;19;20007;-63
2023/03/19 09:35:23;;;;;;;0.10;0.10;;;;;;;27.34;39.29;99677.66;7391517;19;20011;-63
2023/03/19 09:37:49;;;;;;;5.88;0.50;;;;;;;28.39;38.93;99678.59;7393605;19;20103;-63
2023/03/19 09:40:23;;;;;;;1.45;0.52;;;;;;;28.18;38.47;99675.59;7391336;19;20006;-63
2023/03/19 09:43:11;;;;;;;1.98;0.35;;;;;;;28.26;38.33;99696.25;7395716;19;20018;-63
2023/03/19 09:45:38;;;;;;;0.10;0.10;;;;;;;28.34;38.73;99685.41;7398739;19;20151;-63
2023/03/19 09:48:10;;;;;;;0.57;0.10;;;;;;;28.68;38.18;99695.03;7399898;19;20395;-63
2023/03/19 09:50:37;;;;;;;1.08;1.02;;;;;;;28.63;37.88;99698.97;7397205;19;20006;-63
2023/03/19 09:53:21;;;;;;;3.60;0.85;;;;;;;28.33;37.69;99701.06;7397690;19;20706;-62
2023/03/19 09:55:50;;;;;;;1.05;0.75;;;;;;;28.77;37.40;99702.84;7397571;19;20018;-62
2023/03/19 09:58:19;;;;;;;0.68;0.52;;;;;;;28.85;36.50;99706.31;7400650;19;20490;-62
2023/03/19 10:00:49;;;;;;;0.80;0.60;;;;;;;28.88;36.49;99719.44;7398237;19;20383;-63
2023/03/19 10:03:29;;;;;;;0.45;0.45;;;;;;;28.71;36.95;99713.88;7398072;19;20035;-63
2023/03/19 10:06:15;;;;;;;0.15;0.10;;;;;;;28.91;36.60;99706.75;7402129;19;20027;-63
2023/03/19 10:08:55;;;;;;;3.55;0.93;;;;;;;29.18;36.43;99707.28;7397516;19;20010;-62
2023/03/19 10:11:31;;;;;;;1.65;0.52;;;;;;;27.78;37.81;99709.75;7392784;19;20006;-62
2023/03/19 10:14:33;;;;;;;0.30;0.20;;;;;;;29.06;36.39;99723.63;7398016;19;20007;-62
2023/03/19 10:17:03;;;;;;;0.20;0.20;;;;;;;29.13;36.65;99729.16;7398425;19;20018;-62
2023/03/19 10:20:06;;;;;;;1.52;0.60;;;;;;;27.24;38.60;99723.41;7396962;19;20391;-63
2023/03/19 10:22:45;;;;;;;1.08;0.45;;;;;;;28.70;37.05;99720.97;7391104;19;20380;-62
2023/03/19 10:25:27;;;;;;;0.32;0.32;;;;;;;29.08;36.72;99727.38;7394535;19;20022;-63
2023/03/19 10:28:04;;;;;;;3.40;0.90;;;;;;;29.33;35.70;99732.00;7396571;19;20038;-63
2023/03/19 10:30:32;;;;;;;0.50;0.40;;;;;;;29.59;35.43;99740.34;7395228;19;20014;-62
2023/03/19 10:33:27;;;;;;;3.65;0.75;;;;;;;29.81;35.60;99744.03;7389968;19;20014;-62
2023/03/19 10:36:03;;;;;;;2.55;0.47;;;;;;;29.67;35.51;99746.63;7390822;19;20011;-63
2023/03/19 10:38:32;;;;;;;1.33;0.35;;;;;;;28.62;35.46;99743.31;7396669;19;20090;-63
2023/03/19 10:41:16;;;;;;;7.63;1.45;;;;;;;28.89;35.90;99746.75;7392549;19;20010;-64
2023/03/19 10:43:50;;;;;;;0.10;0.10;;;;;;;28.78;35.33;99753.09;7396108;19;20011;-64
2023/03/19 10:46:16;;;;;;;4.45;0.55;;;;;;;28.79;35.25;99760.34;7398939;19;20082;-63
2023/03/19 10:48:45;;;;;;;1.00;0.30;;;;;;;28.97;35.38;99755.94;7397755;19;20014;-63
2023/03/19 10:51:19;;;;;;;0.85;0.50;;;;;;;29.03;34.47;99759.25;7393005;19;20434;-63
2023/03/19 10:53:45;;;;;;;1.65;0.20;;;;;;;28.96;35.31;99760.16;7396953;19;20018;-64
2023/03/19 10:56:20;;;;;;;3.03;1.45;;;;;;;29.17;35.65;99758.16;7394440;19;20011;-64
2023/03/19 10:58:57;;;;;;;2.10;1.40;;;;;;;29.57;35.02;99760.28;7396542;19;20035;-64
2023/03/19 11:01:30;;;;;;;2.58;0.50;;;;;;;29.58;35.02;99747.47;7396156;19;20070;-63
2023/03/19 11:03:58;;;;;;;0.20;0.20;;;;;;;29.20;34.81;99756.19;7396533;19;20014;-63
2023/03/19 11:06:35;;;;;;;0.13;0.10;;;;;;;29.95;33.78;99759.38;7395628;19;20462;-63
2023/03/19 11:09:18;;;;;;;1.05;0.15;;;;;;;29.78;33.56;99773.94;7395803;19;20006;-63
2023/03/19 11:11:52;;;;;;;2.85;0.85;;;;;;;29.76;33.61;99759.47;7394822;19;20017;-63
2023/03/19 11:14:23;;;;;;;12.07;4.10;;;;;;;29.83;33.47;99759.28;7395507;19;20034;-63
2023/03/19 11:17:21;;;;;;;1.17;0.65;;;;;;;29.71;33.94;99754.78;7395570;19;20030;-63
2023/03/19 11:19:53;;;;;;;1.42;0.70;;;;;;;29.24;33.57;99756.47;7393914;19;20011;-63
2023/03/19 11:22:21;;;;;;;1.70;0.68;;;;;;;29.30;33.60;99765.53;7395116;19;20025;-63
2023/03/19 11:25:22;;;;;;;4.43;0.80;;;;;;;28.24;33.97;99758.38;7395546;19;20007;-63
2023/03/19 11:28:06;;;;;;;5.53;1.38;;;;;;;28.21;34.42;99768.91;7392803;19;20014;-63
2023/03/19 11:31:07;;;;;;;4.40;1.00;;;;;;;28.26;34.88;99767.84;7397833;19;20017;-63
2023/03/19 11:33:37;;;;;;;7.05;0.60;;;;;;;26.67;35.84;99755.22;7392682;19;20011;-63
2023/03/19 11:36:25;;;;;;;0.10;0.00;;;;;;;26.66;36.62;99765.13;7393259;19;20066;-63
2023/03/19 11:39:03;;;;;;;0.43;0.43;;;;;;;28.85;34.33;99769.38;7395291;19;20025;-63
2023/03/19 11:41:45;;;;;;;0.45;0.43;;;;;;;29.35;32.72;99761.59;7393720;19;20015;-63
2023/03/19 11:44:39;;;;;;;0.85;0.10;;;;;;;29.69;32.28;99758.25;7392894;19;20090;-63
2023/03/19 11:47:29;;;;;;;12.27;1.55;;;;;;;30.01;32.01;99761.91;7393279;19;20492;-63
2023/03/19 11:49:56;;;;;;;0.30;0.30;;;;;;;29.46;32.08;99769.53;7393044;19;20013;-63